CheckWX is a tool to help pilots better visualize weather data.  It is not intended as a substitute for an official pre-flight weather briefing.

03:13:59 UTC

KCEC TAF
Jack Mc Namara Field Airport
Crescent City, California, USA
KCEC 180242Z 1803/1824 16015KT 6SM -SHRA BR SCT005 OVC010 FM180700 19008KT 3SM -SHRA BR VCTS SCT009 BKN015CB FM181200 18006KT 6SM -SHRA BR SCT015 OVC035 FM181600 21008KT 6SM -SHRA BR VCTS OVC025CB

Sep-18@
03:00 UTC

Sep-18 @ 03:00 UTC

Sep-18@
07:00 UTC

Sep-18 @ 07:00 UTC

KCEC 180242Z 1803/1824 16015KT 6SM -SHRA BR SCT005 OVC010
Wind
  • 160° at 15 KTS
Conditions
Light Rain, Mist
Cloud Levels
  • Scattered at 500' AGL
  • Overcast at 1,000' AGL

Sep-18@
07:00 UTC

Sep-18 @ 07:00 UTC

Sep-18@
12:00 UTC

Sep-18 @ 12:00 UTC

FM180700 19008KT 3SM -SHRA BR VCTS SCT009 BKN015CB

From

From Standard forecast or significant change

Wind
  • 190° at 8 KTS
Conditions
Light Rain, Mist, Area Thunderstorm
Cloud Levels
  • Scattered at 900' AGL
  • Broken at 1,500' AGL

Sep-18@
12:00 UTC

Sep-18 @ 12:00 UTC

Sep-18@
16:00 UTC

Sep-18 @ 16:00 UTC

FM181200 18006KT 6SM -SHRA BR SCT015 OVC035

From

From Standard forecast or significant change

Wind
  • 180° at 6 KTS
Conditions
Light Rain, Mist
Cloud Levels
  • Scattered at 1,500' AGL
  • Overcast at 3,500' AGL

Sep-18@
16:00 UTC

Sep-18 @ 16:00 UTC

Sep-19@
00:00 UTC

Sep-19 @ 00:00 UTC

FM181600 21008KT 6SM -SHRA BR VCTS OVC025CB

From

From Standard forecast or significant change

Wind
  • 210° at 8 KTS
Conditions
Light Rain, Mist, Area Thunderstorm
Cloud Levels
  • Overcast at 2,500' AGL